createdAt,value
2018-09-14T00:01:32.873Z,14.51
2018-09-14T00:04:02.127Z,14.44
2018-09-14T00:06:31.607Z,14.41
2018-09-14T00:09:00.924Z,14.45
2018-09-14T00:11:30.509Z,14.33
2018-09-14T00:13:59.832Z,14.39
2018-09-14T00:16:28.986Z,14.34
2018-09-14T00:18:58.140Z,14.32
2018-09-14T00:21:27.493Z,14.29
2018-09-14T00:23:56.632Z,14.43
2018-09-14T00:26:26.162Z,14.33
2018-09-14T00:28:55.662Z,14.35
2018-09-14T00:31:25.150Z,14.29
2018-09-14T00:33:54.356Z,14.28
2018-09-14T00:36:23.922Z,14.26
2018-09-14T00:38:53.407Z,14.27
2018-09-14T00:41:22.626Z,14.21
2018-09-14T00:43:51.875Z,14.10
2018-09-14T00:46:21.504Z,14.20
2018-09-14T00:48:50.692Z,14.18
2018-09-14T00:51:20.019Z,14.21
2018-09-14T00:53:49.376Z,14.23
2018-09-14T00:56:18.697Z,14.19
2018-09-14T00:58:47.985Z,14.20
2018-09-14T01:01:17.473Z,14.21
2018-09-14T01:03:46.706Z,14.17
2018-09-14T01:06:15.925Z,14.10
2018-09-14T01:08:51.567Z,14.16
2018-09-14T01:11:20.576Z,14.16
2018-09-14T01:13:49.724Z,14.17
2018-09-14T01:16:18.954Z,14.11
2018-09-14T01:18:48.144Z,14.21
2018-09-14T01:21:17.548Z,14.23
2018-09-14T01:23:46.700Z,14.20
2018-09-14T01:26:16.132Z,14.14
2018-09-14T01:28:45.323Z,14.14
2018-09-14T01:31:14.858Z,14.14
2018-09-14T01:33:44.545Z,14.16
2018-09-14T01:36:13.856Z,14.14
2018-09-14T01:39:45.933Z,14.17
2018-09-14T01:42:15.315Z,14.17
2018-09-14T01:44:44.503Z,14.15
2018-09-14T01:47:14.069Z,14.13
2018-09-14T01:49:46.273Z,14.22
2018-09-14T01:52:15.693Z,14.13
2018-09-14T01:54:44.979Z,14.07
2018-09-14T01:57:14.220Z,14.08
2018-09-14T01:59:43.165Z,14.04
2018-09-14T02:02:12.422Z,14.12
2018-09-14T02:04:41.673Z,14.13
2018-09-14T02:07:10.990Z,14.15
2018-09-14T02:09:40.384Z,14.21
2018-09-14T02:12:09.498Z,14.23
2018-09-14T02:14:38.728Z,14.17
2018-09-14T02:17:08.019Z,14.11
2018-09-14T02:19:37.352Z,14.15
2018-09-14T02:22:06.616Z,14.13
2018-09-14T02:24:35.989Z,14.05
2018-09-14T02:27:05.307Z,14.12
2018-09-14T02:29:34.351Z,14.23
2018-09-14T02:32:03.904Z,14.18
2018-09-14T02:34:33.168Z,14.20
2018-09-14T02:37:02.880Z,14.19
2018-09-14T02:39:32.295Z,14.20
2018-09-14T02:42:01.765Z,14.27
2018-09-14T02:44:30.748Z,14.31
2018-09-14T02:47:00.020Z,14.22
2018-09-14T02:49:29.384Z,14.23
2018-09-14T02:51:58.701Z,14.27
2018-09-14T02:54:27.983Z,14.17
2018-09-14T02:56:57.327Z,14.22
2018-09-14T02:59:26.565Z,14.25
2018-09-14T03:01:55.918Z,14.28
2018-09-14T03:04:25.085Z,14.13
2018-09-14T03:06:54.699Z,14.11
2018-09-14T03:09:23.847Z,14.07
2018-09-14T03:11:53.103Z,13.98
2018-09-14T03:14:22.389Z,14.03
2018-09-14T03:16:51.606Z,13.96
2018-09-14T03:19:20.976Z,13.92
2018-09-14T03:21:50.435Z,13.91
2018-09-14T03:24:20.083Z,13.87
2018-09-14T03:26:49.316Z,13.95
2018-09-14T03:29:18.584Z,13.93
2018-09-14T03:31:47.700Z,13.87
2018-09-14T03:34:16.893Z,13.92
2018-09-14T03:36:46.122Z,13.94
2018-09-14T03:39:15.434Z,13.97
2018-09-14T03:41:44.614Z,13.87
2018-09-14T03:44:14.000Z,13.86
2018-09-14T03:46:43.323Z,13.97
2018-09-14T03:49:12.488Z,13.89
2018-09-14T03:51:41.724Z,13.91
2018-09-14T03:54:13.738Z,13.92
2018-09-14T03:56:43.423Z,13.98
2018-09-14T03:59:12.903Z,13.94
2018-09-14T04:04:38.241Z,13.84
2018-09-14T04:07:06.699Z,13.90
2018-09-14T04:09:35.177Z,13.92
2018-09-14T04:12:03.581Z,13.85
2018-09-14T04:14:32.372Z,13.85
2018-09-14T04:17:00.738Z,13.86
2018-09-14T04:19:29.127Z,13.87
2018-09-14T04:21:57.877Z,13.88
2018-09-14T04:24:26.363Z,13.88
2018-09-14T04:26:54.654Z,13.90
2018-09-14T04:29:23.155Z,13.83
2018-09-14T04:31:51.605Z,13.91
2018-09-14T04:34:19.950Z,13.91
2018-09-14T04:36:48.271Z,13.93
2018-09-14T04:39:16.734Z,13.95
2018-09-14T04:41:45.106Z,13.97
2018-09-14T04:44:13.366Z,13.99
2018-09-14T04:46:41.691Z,14.04
2018-09-14T04:49:10.358Z,13.93
2018-09-14T04:51:38.637Z,13.93
2018-09-14T04:54:07.062Z,13.87
2018-09-14T04:56:35.370Z,13.86
2018-09-14T04:59:03.691Z,13.83
2018-09-14T05:01:32.279Z,13.85
2018-09-14T05:04:00.670Z,13.91
2018-09-14T05:06:29.015Z,13.94
2018-09-14T05:08:57.589Z,14.00
2018-09-14T05:11:26.016Z,14.02
2018-09-14T05:13:54.417Z,14.07
2018-09-14T05:16:23.052Z,14.10
2018-09-14T05:18:51.398Z,14.10
2018-09-14T05:21:19.717Z,14.13
2018-09-14T05:23:48.043Z,14.22
2018-09-14T05:26:16.314Z,14.21
2018-09-14T05:28:44.607Z,14.22
2018-09-14T05:31:12.966Z,14.28
2018-09-14T05:33:41.586Z,14.33
2018-09-14T05:36:10.195Z,14.37
2018-09-14T05:38:39.462Z,14.43
2018-09-14T05:41:07.829Z,14.49
2018-09-14T05:43:36.117Z,14.41
2018-09-14T05:46:04.473Z,14.38
2018-09-14T05:48:32.959Z,14.50
2018-09-14T05:51:01.286Z,14.54
2018-09-14T05:53:29.700Z,14.39
2018-09-14T05:55:58.135Z,14.45
2018-09-14T05:58:26.444Z,14.48
2018-09-14T06:00:55.927Z,14.50
2018-09-14T06:03:33.425Z,14.47
2018-09-14T06:06:01.904Z,14.69
2018-09-14T06:08:30.462Z,14.52
2018-09-14T06:10:59.133Z,14.59
2018-09-14T06:13:28.218Z,14.68
2018-09-14T06:15:56.852Z,14.78
2018-09-14T06:18:25.219Z,14.86
2018-09-14T06:20:53.526Z,15.07
2018-09-14T06:23:22.126Z,15.26
2018-09-14T06:25:50.828Z,15.15
2018-09-14T06:28:19.446Z,15.22
2018-09-14T06:30:47.961Z,15.40
2018-09-14T06:33:16.262Z,15.47
2018-09-14T06:35:45.176Z,15.61
2018-09-14T06:38:13.487Z,15.28
2018-09-14T06:40:42.230Z,15.48
2018-09-14T06:43:10.732Z,15.45
2018-09-14T06:45:39.020Z,15.33
2018-09-14T06:48:07.554Z,15.46
2018-09-14T06:50:35.876Z,15.54
2018-09-14T06:53:04.143Z,15.47
2018-09-14T06:55:32.450Z,15.28
2018-09-14T06:58:00.737Z,15.45
2018-09-14T07:00:29.304Z,15.47
2018-09-14T07:02:58.091Z,15.63
2018-09-14T07:05:26.607Z,15.65
2018-09-14T07:07:55.422Z,15.93
2018-09-14T07:10:23.705Z,16.18
2018-09-14T07:12:52.193Z,15.97
2018-09-14T07:15:20.534Z,15.82
2018-09-14T07:17:48.974Z,15.97
2018-09-14T07:20:17.282Z,16.00
2018-09-14T07:22:45.579Z,15.97
2018-09-14T07:25:14.447Z,16.04
2018-09-14T07:27:42.825Z,16.05
2018-09-14T07:30:11.140Z,16.30
2018-09-14T07:32:39.686Z,16.12
2018-09-14T07:35:09.162Z,16.14
2018-09-14T07:37:37.720Z,16.21
2018-09-14T07:40:06.046Z,16.27
2018-09-14T07:42:35.069Z,16.21
2018-09-14T07:45:03.307Z,16.33
2018-09-14T07:47:32.353Z,16.60
2018-09-14T07:50:00.635Z,16.86
2018-09-14T07:52:30.396Z,16.94
2018-09-14T07:54:58.811Z,16.61
2018-09-14T07:57:28.051Z,16.57
2018-09-14T07:59:58.126Z,16.83
2018-09-14T08:02:26.791Z,17.23
2018-09-14T08:04:55.153Z,16.97
2018-09-14T08:07:23.949Z,16.90
2018-09-14T08:09:52.539Z,17.17
2018-09-14T08:12:21.088Z,17.21
2018-09-14T08:14:50.179Z,17.26
2018-09-14T08:17:19.064Z,16.97
2018-09-14T08:19:47.623Z,17.02
2018-09-14T08:22:16.444Z,17.51
2018-09-14T08:24:45.408Z,17.62
2018-09-14T08:27:14.947Z,17.58
2018-09-14T08:29:43.238Z,17.80
2018-09-14T08:32:12.194Z,17.82
2018-09-14T08:34:40.503Z,17.98
2018-09-14T08:37:09.186Z,17.78
2018-09-14T08:39:37.639Z,16.88
2018-09-14T08:42:06.194Z,17.40
2018-09-14T08:44:34.634Z,17.33
2018-09-14T08:47:03.008Z,17.34
2018-09-14T08:49:32.236Z,17.15
2018-09-14T08:52:00.643Z,17.48
2018-09-14T08:54:28.953Z,18.00
2018-09-14T08:57:00.775Z,18.01
2018-09-14T08:59:29.249Z,17.84
2018-09-14T09:01:57.654Z,17.68
2018-09-14T09:04:26.330Z,17.81
2018-09-14T09:06:54.627Z,17.99
2018-09-14T09:09:22.960Z,18.08
2018-09-14T09:11:51.287Z,18.55
2018-09-14T09:14:19.812Z,18.45
2018-09-14T09:16:48.314Z,18.67
2018-09-14T09:19:16.623Z,18.61
2018-09-14T09:21:45.051Z,18.38
2018-09-14T09:24:13.361Z,18.33
2018-09-14T09:26:42.754Z,17.77
2018-09-14T09:29:11.508Z,18.53
2018-09-14T09:31:40.157Z,18.38
2018-09-14T09:34:09.455Z,18.70
2018-09-14T09:36:37.911Z,18.81
2018-09-14T09:39:09.726Z,18.97
2018-09-14T09:41:38.327Z,18.94
2018-09-14T09:44:07.147Z,18.96
2018-09-14T09:46:35.415Z,19.23
2018-09-14T09:49:03.705Z,18.91
2018-09-14T09:51:32.112Z,18.91
2018-09-14T09:54:02.209Z,18.23
2018-09-14T09:56:31.190Z,18.69
2018-09-14T09:58:59.655Z,18.97
2018-09-14T10:01:34.692Z,19.00
2018-09-14T10:04:18.376Z,19.18
2018-09-14T10:06:48.162Z,18.94
2018-09-14T10:09:16.631Z,19.10
2018-09-14T10:11:46.729Z,18.78
2018-09-14T10:14:15.190Z,18.68
2018-09-14T10:16:44.449Z,18.77
2018-09-14T10:19:13.346Z,19.14
2018-09-14T10:21:41.935Z,18.52
2018-09-14T10:24:11.006Z,18.83
2018-09-14T10:26:39.519Z,19.30
2018-09-14T10:29:08.005Z,18.83
2018-09-14T10:31:39.755Z,18.84
2018-09-14T10:34:08.555Z,18.81
2018-09-14T10:36:36.834Z,18.91
2018-09-14T10:39:09.917Z,19.11
2018-09-14T10:41:38.275Z,19.00
2018-09-14T10:44:07.045Z,19.32
2018-09-14T10:46:35.698Z,18.96
2018-09-14T10:49:05.135Z,19.18
2018-09-14T10:51:34.075Z,19.22
2018-09-14T10:54:02.853Z,18.71
2018-09-14T10:56:31.839Z,18.84
2018-09-14T10:59:00.095Z,18.92
2018-09-14T11:01:34.218Z,18.76
2018-09-14T11:04:02.686Z,18.67
2018-09-14T11:06:31.438Z,18.71
2018-09-14T11:09:00.474Z,19.17
2018-09-14T11:11:29.978Z,18.95
2018-09-14T11:13:59.076Z,19.10
2018-09-14T11:16:27.724Z,19.24
2018-09-14T11:18:56.124Z,19.26
2018-09-14T11:21:24.990Z,19.21
2018-09-14T11:23:53.958Z,19.33
2018-09-14T11:26:22.366Z,19.08
2018-09-14T11:28:50.846Z,19.23
2018-09-14T11:31:24.129Z,19.28
2018-09-14T11:34:02.935Z,19.00
2018-09-14T11:36:31.336Z,19.69
2018-09-14T11:39:00.629Z,19.37
2018-09-14T11:41:29.376Z,19.35
2018-09-14T11:43:58.543Z,19.51
2018-09-14T11:46:33.648Z,19.30
2018-09-14T11:49:02.007Z,19.89
2018-09-14T11:51:30.319Z,20.21
2018-09-14T11:53:58.687Z,20.23
2018-09-14T11:56:26.998Z,19.85
2018-09-14T11:59:26.265Z,20.32
2018-09-14T12:01:55.696Z,21.01
2018-09-14T12:04:31.071Z,20.89
2018-09-14T12:06:59.836Z,20.41
2018-09-14T12:09:28.144Z,21.06
2018-09-14T12:11:56.508Z,20.71
2018-09-14T12:14:25.405Z,21.82
2018-09-14T12:16:53.774Z,22.37
2018-09-14T12:19:22.054Z,21.13
2018-09-14T12:21:53.368Z,23.89
2018-09-14T12:24:21.841Z,23.40
2018-09-14T12:26:50.378Z,23.25
2018-09-14T12:29:18.708Z,21.56
2018-09-14T12:31:48.133Z,20.94
2018-09-14T12:34:17.249Z,20.46
2018-09-14T12:36:45.623Z,20.55
2018-09-14T12:39:13.984Z,20.62
2018-09-14T12:41:42.686Z,20.27
2018-09-14T12:44:10.993Z,20.19
2018-09-14T12:46:39.528Z,20.30
2018-09-14T12:49:08.982Z,20.40
2018-09-14T12:51:38.997Z,20.14
2018-09-14T12:54:08.939Z,20.55
2018-09-14T12:56:37.966Z,20.57
2018-09-14T12:59:09.627Z,26.01
2018-09-14T13:01:38.134Z,28.54
2018-09-14T13:04:06.529Z,28.71
2018-09-14T13:06:38.021Z,29.01
2018-09-14T13:09:08.714Z,24.46
2018-09-14T13:11:38.050Z,26.07
2018-09-14T13:14:06.418Z,28.52
2018-09-14T13:16:35.280Z,30.09
2018-09-14T13:19:04.411Z,26.80
2018-09-14T13:21:33.948Z,22.79
2018-09-14T13:24:03.573Z,22.53
2018-09-14T13:26:34.709Z,22.85
2018-09-14T13:29:03.520Z,23.38
2018-09-14T13:31:32.525Z,24.22
2018-09-14T13:34:01.704Z,22.69
2018-09-14T13:36:30.977Z,21.98
2018-09-14T13:38:59.817Z,21.14
2018-09-14T13:41:28.873Z,21.09
2018-09-14T13:43:57.700Z,21.16
2018-09-14T13:46:26.646Z,20.69
2018-09-14T13:48:56.093Z,20.69
2018-09-14T13:51:24.413Z,20.54
2018-09-14T13:53:53.187Z,20.76
2018-09-14T13:56:22.043Z,20.97
2018-09-14T13:58:50.352Z,20.89
2018-09-14T14:01:18.930Z,20.53
2018-09-14T14:03:47.289Z,20.33
2018-09-14T14:06:16.360Z,20.18
2018-09-14T14:08:45.824Z,20.35
2018-09-14T14:11:14.783Z,20.30
2018-09-14T14:13:43.493Z,20.56
2018-09-14T14:16:12.399Z,20.47
2018-09-14T14:18:40.774Z,20.70
2018-09-14T14:21:09.716Z,21.16
2018-09-14T14:23:39.266Z,21.61
2018-09-14T14:26:07.834Z,21.24
2018-09-14T14:28:36.442Z,20.91
2018-09-14T14:31:05.906Z,20.99
2018-09-14T14:33:34.406Z,20.78
2018-09-14T14:36:03.700Z,20.52
2018-09-14T14:38:32.745Z,20.75
2018-09-14T14:41:01.584Z,20.76
2018-09-14T14:43:30.239Z,21.51
2018-09-14T14:46:00.002Z,21.28
2018-09-14T14:48:28.484Z,21.74
2018-09-14T14:50:56.906Z,21.80
2018-09-14T14:53:25.196Z,21.13
2018-09-14T14:55:54.259Z,21.24
2018-09-14T14:58:22.542Z,21.42
2018-09-14T15:00:51.418Z,20.88
2018-09-14T15:03:21.018Z,20.91
2018-09-14T15:05:50.397Z,21.03
2018-09-14T15:08:18.807Z,20.55
2018-09-14T15:10:47.642Z,20.18
2018-09-14T15:13:16.447Z,20.38
2018-09-14T15:15:46.240Z,20.18
2018-09-14T15:18:14.921Z,20.46
2018-09-14T15:20:43.996Z,20.41
2018-09-14T15:23:13.398Z,20.21
2018-09-14T15:25:43.299Z,20.12
2018-09-14T15:28:11.634Z,20.06
2018-09-14T15:30:40.715Z,20.10
2018-09-14T15:33:10.416Z,19.99
2018-09-14T15:35:40.246Z,19.89
2018-09-14T15:38:08.755Z,19.60
2018-09-14T15:40:38.808Z,19.57
2018-09-14T15:43:07.850Z,19.75
2018-09-14T15:45:37.265Z,19.63
2018-09-14T15:48:06.166Z,19.58
2018-09-14T15:50:35.911Z,19.62
2018-09-14T15:53:05.036Z,19.59
2018-09-14T15:55:33.357Z,19.55
2018-09-14T15:58:02.715Z,19.50
2018-09-14T16:00:31.066Z,19.42
2018-09-14T16:02:59.451Z,19.52
2018-09-14T16:05:28.753Z,19.26
2018-09-14T16:07:57.271Z,19.32
2018-09-14T16:10:26.477Z,19.21
2018-09-14T16:12:55.221Z,19.23
2018-09-14T16:15:23.660Z,19.24
2018-09-14T16:17:52.677Z,19.51
2018-09-14T16:20:21.427Z,19.57
2018-09-14T16:22:49.886Z,19.48
2018-09-14T16:25:18.828Z,19.54
2018-09-14T16:27:47.667Z,19.57
2018-09-14T16:30:16.173Z,19.51
2018-09-14T16:32:46.582Z,19.38
2018-09-14T16:35:14.927Z,19.25
2018-09-14T16:37:43.853Z,19.08
2018-09-14T16:40:12.212Z,18.96
2018-09-14T16:42:40.931Z,18.89
2018-09-14T16:45:10.435Z,18.87
2018-09-14T16:47:39.649Z,18.81
2018-09-14T16:50:07.982Z,18.69
2018-09-14T16:52:37.104Z,18.60
2018-09-14T16:55:05.990Z,18.55
2018-09-14T16:57:35.357Z,18.51
2018-09-14T17:00:05.578Z,18.45
2018-09-14T17:02:34.546Z,18.31
2018-09-14T17:05:03.514Z,18.30
2018-09-14T17:07:33.587Z,18.26
2018-09-14T17:10:02.088Z,18.15
2018-09-14T17:12:31.073Z,18.07
2018-09-14T17:14:59.350Z,18.01
2018-09-14T17:17:28.054Z,17.89
2018-09-14T17:19:56.340Z,17.77
2018-09-14T17:22:25.020Z,17.65
2018-09-14T17:24:53.903Z,17.59
2018-09-14T17:27:23.305Z,17.58
2018-09-14T17:29:52.683Z,17.53
2018-09-14T17:32:21.302Z,17.46
2018-09-14T17:34:49.937Z,17.36
2018-09-14T17:37:19.142Z,17.33
2018-09-14T17:39:47.624Z,17.20
2018-09-14T17:42:16.101Z,17.23
2018-09-14T17:44:44.894Z,17.19
2018-09-14T17:47:14.980Z,16.99
2018-09-14T17:49:43.525Z,16.94
2018-09-14T17:52:12.850Z,16.88
2018-09-14T17:54:41.441Z,16.78
2018-09-14T17:57:10.822Z,16.64
2018-09-14T17:59:46.476Z,16.64
2018-09-14T18:02:15.853Z,16.50
2018-09-14T18:04:45.535Z,16.37
2018-09-14T18:07:13.934Z,16.39
2018-09-14T18:09:43.803Z,16.25
2018-09-14T18:12:12.781Z,16.15
2018-09-14T18:14:41.378Z,16.02
2018-09-14T18:17:11.803Z,15.87
2018-09-14T18:19:40.346Z,15.83
2018-09-14T18:22:08.730Z,15.75
2018-09-14T18:24:37.488Z,15.66
2018-09-14T18:27:06.928Z,15.60
2018-09-14T18:29:36.640Z,15.47
2018-09-14T18:32:05.413Z,15.39
2018-09-14T18:34:42.892Z,15.28
2018-09-14T18:37:13.068Z,15.12
2018-09-14T18:39:50.607Z,15.10
2018-09-14T18:42:24.246Z,15.04
2018-09-14T18:44:54.097Z,14.98
2018-09-14T18:47:23.125Z,14.83
2018-09-14T18:49:51.803Z,14.84
2018-09-14T18:52:20.858Z,14.79
2018-09-14T18:54:50.573Z,14.76
2018-09-14T18:57:19.492Z,14.67
2018-09-14T18:59:49.032Z,14.65
2018-09-14T19:02:19.509Z,14.60
2018-09-14T19:04:48.973Z,14.53
2018-09-14T19:07:19.649Z,14.45
2018-09-14T19:09:48.051Z,14.46
2018-09-14T19:12:16.552Z,14.37
2018-09-14T19:14:45.239Z,14.32
2018-09-14T19:17:14.254Z,14.31
2018-09-14T19:19:42.782Z,14.38
2018-09-14T19:22:11.265Z,14.50
2018-09-14T19:24:40.977Z,14.40
2018-09-14T19:27:09.392Z,14.40
2018-09-14T19:29:38.246Z,14.34
2018-09-14T19:32:07.202Z,14.22
2018-09-14T19:34:35.829Z,14.05
2018-09-14T19:37:05.463Z,13.98
2018-09-14T19:39:40.802Z,13.92
2018-09-14T19:42:09.466Z,13.92
2018-09-14T19:44:38.869Z,13.95
2018-09-14T19:47:09.039Z,13.91
2018-09-14T19:49:41.082Z,13.82
2018-09-14T19:52:10.478Z,13.72
2018-09-14T19:54:39.757Z,13.64
2018-09-14T19:57:10.760Z,13.67
2018-09-14T19:59:40.070Z,13.77
2018-09-14T20:02:09.284Z,13.72
2018-09-14T20:04:38.361Z,13.61
2018-09-14T20:07:07.225Z,13.70
2018-09-14T20:09:35.822Z,13.79
2018-09-14T20:12:06.268Z,13.75
2018-09-14T20:14:34.606Z,13.90
2018-09-14T20:17:02.905Z,13.69
2018-09-14T20:19:31.942Z,13.89
2018-09-14T20:22:00.748Z,13.89
2018-09-14T20:24:29.216Z,13.81
2018-09-14T20:26:58.086Z,13.95
2018-09-14T20:29:26.760Z,13.97
2018-09-14T20:31:55.596Z,13.96
2018-09-14T20:34:23.950Z,14.04
2018-09-14T20:36:52.683Z,14.14
2018-09-14T20:39:21.075Z,14.23
2018-09-14T20:41:50.007Z,14.27
2018-09-14T20:44:18.667Z,14.24
2018-09-14T20:46:47.037Z,14.35
2018-09-14T20:49:15.755Z,14.23
2018-09-14T20:51:44.201Z,14.26
2018-09-14T20:54:12.950Z,14.23
2018-09-14T20:56:41.378Z,14.19
2018-09-14T20:59:09.839Z,14.25
2018-09-14T21:01:38.589Z,14.22
2018-09-14T21:04:07.167Z,14.24
2018-09-14T21:06:40.191Z,14.48
2018-09-14T21:09:10.980Z,14.89
2018-09-14T21:11:40.035Z,14.94
2018-09-14T21:14:12.381Z,14.98
2018-09-14T21:16:41.357Z,15.10
2018-09-14T21:19:13.077Z,15.12
2018-09-14T21:21:42.641Z,15.00
2018-09-14T21:24:11.479Z,14.71
2018-09-14T21:26:40.109Z,14.74
2018-09-14T21:29:11.535Z,14.74
2018-09-14T21:31:39.915Z,14.94
2018-09-14T21:34:09.374Z,15.19
2018-09-14T21:36:38.743Z,15.26
2018-09-14T21:39:09.487Z,15.28
2018-09-14T21:41:38.345Z,15.31
2018-09-14T21:44:07.642Z,15.30
2018-09-14T21:46:36.595Z,15.31
2018-09-14T21:49:05.205Z,15.30
2018-09-14T21:51:34.163Z,15.32
2018-09-14T21:54:03.227Z,15.36
2018-09-14T21:56:32.008Z,15.38
2018-09-14T21:59:00.346Z,15.34
2018-09-14T22:01:30.514Z,15.36
2018-09-14T22:04:00.165Z,15.35
2018-09-14T22:06:28.781Z,15.33
2018-09-14T22:08:57.717Z,15.34
2018-09-14T22:11:29.091Z,15.32
2018-09-14T22:13:57.764Z,15.35
2018-09-14T22:16:26.819Z,15.39
2018-09-14T22:18:55.146Z,15.37
2018-09-14T22:21:23.620Z,15.39
2018-09-14T22:23:51.921Z,15.41
2018-09-14T22:26:20.207Z,15.43
2018-09-14T22:28:55.334Z,15.41
2018-09-14T22:31:23.783Z,15.35
2018-09-14T22:33:52.066Z,15.32
2018-09-14T22:36:20.812Z,15.23
2018-09-14T22:38:49.138Z,15.23
2018-09-14T22:41:17.454Z,15.16
2018-09-14T22:43:46.354Z,15.10
2018-09-14T22:46:15.870Z,15.12
2018-09-14T22:48:44.214Z,15.08
2018-09-14T22:51:12.521Z,15.11
2018-09-14T22:53:41.286Z,15.09
2018-09-14T22:56:09.683Z,15.08
2018-09-14T22:58:37.979Z,15.10
2018-09-14T23:01:11.542Z,15.09
2018-09-14T23:03:40.261Z,15.06
2018-09-14T23:06:10.527Z,15.15
2018-09-14T23:08:48.709Z,15.14
2018-09-14T23:11:17.128Z,15.16
2018-09-14T23:13:45.976Z,14.98
2018-09-14T23:16:14.279Z,14.91
2018-09-14T23:18:44.066Z,14.85
2018-09-14T23:21:19.235Z,14.94
2018-09-14T23:23:47.714Z,14.88
2018-09-14T23:26:19.308Z,14.75
2018-09-14T23:28:47.569Z,14.79
2018-09-14T23:31:15.833Z,14.73
2018-09-14T23:33:44.357Z,14.66
2018-09-14T23:36:13.154Z,14.55
2018-09-14T23:38:41.428Z,14.44
2018-09-14T23:41:09.720Z,14.32
2018-09-14T23:43:37.993Z,14.28
2018-09-14T23:46:07.053Z,14.29
2018-09-14T23:48:35.399Z,14.27
2018-09-14T23:51:04.102Z,14.06
2018-09-14T23:53:32.413Z,14.11
2018-09-14T23:56:00.727Z,14.06
2018-09-14T23:58:29.053Z,13.93
